createdAt,value
2019-03-04T00:01:37.277Z,122.60
2019-03-04T00:04:04.844Z,121.87
2019-03-04T00:06:32.666Z,115.13
2019-03-04T00:09:00.200Z,122.13
2019-03-04T00:11:27.967Z,116.77
2019-03-04T00:13:55.318Z,117.27
2019-03-04T00:16:23.462Z,119.23
2019-03-04T00:18:50.945Z,124.07
2019-03-04T00:21:19.429Z,123.57
2019-03-04T00:23:46.894Z,122.03
2019-03-04T00:26:15.363Z,118.60
2019-03-04T00:28:42.934Z,123.60
2019-03-04T00:31:10.422Z,116.90
2019-03-04T00:33:37.916Z,111.60
2019-03-04T00:36:05.539Z,111.37
2019-03-04T00:38:33.105Z,135.73
2019-03-04T00:41:01.100Z,120.43
2019-03-04T00:43:28.818Z,119.97
2019-03-04T00:45:56.167Z,111.63
2019-03-04T00:48:23.751Z,116.97
2019-03-04T00:50:51.623Z,109.53
2019-03-04T00:53:19.192Z,118.57
2019-03-04T00:55:47.240Z,110.73
2019-03-04T00:58:14.834Z,110.33
2019-03-04T01:00:42.291Z,122.17
2019-03-04T01:03:10.049Z,125.83
2019-03-04T01:05:37.695Z,116.17
2019-03-04T01:08:05.226Z,110.03
2019-03-04T01:10:32.702Z,117.27
2019-03-04T01:13:00.620Z,112.67
2019-03-04T01:15:28.190Z,112.37
2019-03-04T01:17:55.624Z,116.43
2019-03-04T01:20:23.194Z,119.97
2019-03-04T01:22:50.573Z,120.73
2019-03-04T01:25:18.534Z,127.13
2019-03-04T01:27:46.343Z,119.03
2019-03-04T01:30:20.243Z,123.27
2019-03-04T01:32:48.461Z,115.73
2019-03-04T01:35:16.034Z,112.90
2019-03-04T01:37:43.776Z,110.87
2019-03-04T01:40:17.276Z,112.13
2019-03-04T01:42:44.838Z,111.60
2019-03-04T01:45:13.477Z,110.93
2019-03-04T01:47:41.215Z,117.00
2019-03-04T01:50:12.226Z,117.20
2019-03-04T01:52:39.880Z,130.63
2019-03-04T01:55:10.085Z,120.50
2019-03-04T01:57:37.830Z,122.47
2019-03-04T02:00:09.401Z,129.80
2019-03-04T02:02:37.508Z,124.80
2019-03-04T02:05:06.589Z,121.70
2019-03-04T02:07:33.931Z,121.23
2019-03-04T02:10:01.699Z,122.37
2019-03-04T02:12:29.323Z,123.13
2019-03-04T02:14:56.731Z,128.87
2019-03-04T02:17:24.107Z,119.87
2019-03-04T02:19:51.475Z,126.00
2019-03-04T02:22:19.253Z,121.57
2019-03-04T02:24:46.858Z,128.13
2019-03-04T02:27:14.299Z,124.03
2019-03-04T02:29:41.903Z,144.47
2019-03-04T02:32:09.424Z,120.50
2019-03-04T02:34:37.022Z,128.67
2019-03-04T02:37:04.836Z,125.87
2019-03-04T02:39:32.449Z,125.87
2019-03-04T02:41:59.810Z,124.90
2019-03-04T02:44:27.352Z,132.10
2019-03-04T02:46:55.038Z,118.07
2019-03-04T02:49:22.373Z,129.10
2019-03-04T02:51:49.871Z,132.73
2019-03-04T02:54:18.031Z,129.83
2019-03-04T02:56:48.572Z,113.60
2019-03-04T02:59:16.199Z,122.50
2019-03-04T03:01:46.248Z,113.57
2019-03-04T03:04:13.638Z,127.37
2019-03-04T03:06:43.322Z,127.40
2019-03-04T03:09:12.161Z,118.40
2019-03-04T03:11:39.892Z,113.77
2019-03-04T03:14:07.385Z,119.60
2019-03-04T03:16:34.874Z,110.57
2019-03-04T03:19:02.475Z,121.87
2019-03-04T03:21:29.882Z,113.67
2019-03-04T03:23:59.393Z,119.97
2019-03-04T03:26:26.722Z,111.87
2019-03-04T03:28:54.273Z,116.77
2019-03-04T03:31:22.355Z,115.10
2019-03-04T03:33:50.025Z,119.77
2019-03-04T03:36:17.499Z,119.37
2019-03-04T03:38:45.129Z,121.33
2019-03-04T03:41:12.793Z,109.90
2019-03-04T03:43:40.255Z,117.90
2019-03-04T03:46:08.043Z,121.00
2019-03-04T03:48:35.671Z,119.30
2019-03-04T03:51:03.500Z,119.33
2019-03-04T03:53:31.925Z,117.03
2019-03-04T03:56:00.395Z,119.93
2019-03-04T03:58:27.940Z,121.23
2019-03-04T04:00:55.552Z,117.57
2019-03-04T04:03:23.307Z,120.57
2019-03-04T04:05:51.010Z,119.80
2019-03-04T04:08:18.449Z,125.03
2019-03-04T04:10:46.044Z,118.43
2019-03-04T04:13:13.921Z,124.50
2019-03-04T04:15:41.292Z,139.33
2019-03-04T04:18:09.576Z,116.20
2019-03-04T04:20:37.381Z,121.90
2019-03-04T04:23:05.564Z,117.60
2019-03-04T04:25:33.390Z,122.77
2019-03-04T04:28:01.662Z,123.67
2019-03-04T04:30:29.981Z,120.47
2019-03-04T04:32:57.422Z,119.10
2019-03-04T04:35:24.810Z,117.23
2019-03-04T04:37:52.176Z,116.70
2019-03-04T04:40:19.749Z,124.23
2019-03-04T04:42:47.907Z,112.57
2019-03-04T04:45:15.847Z,117.83
2019-03-04T04:47:43.320Z,118.30
2019-03-04T04:50:12.199Z,116.80
2019-03-04T04:52:39.655Z,114.50
2019-03-04T04:55:07.190Z,113.47
2019-03-04T04:57:34.890Z,116.07
2019-03-04T05:00:05.823Z,111.13
2019-03-04T05:02:33.495Z,110.93
2019-03-04T05:05:01.422Z,112.23
2019-03-04T05:07:28.779Z,112.40
2019-03-04T05:09:56.284Z,113.40
2019-03-04T05:12:23.631Z,109.97
2019-03-04T05:14:50.994Z,115.47
2019-03-04T05:17:18.371Z,118.93
2019-03-04T05:19:45.900Z,118.80
2019-03-04T05:22:13.778Z,108.03
2019-03-04T05:24:41.232Z,129.83
2019-03-04T05:27:09.229Z,117.27
2019-03-04T05:29:36.823Z,122.07
2019-03-04T05:32:07.214Z,113.63
2019-03-04T05:34:35.283Z,121.97
2019-03-04T05:37:02.771Z,111.50
2019-03-04T05:39:30.166Z,120.23
2019-03-04T05:41:57.605Z,106.63
2019-03-04T05:44:25.195Z,118.80
2019-03-04T05:46:52.861Z,117.60
2019-03-04T05:49:21.496Z,137.53
2019-03-04T05:51:48.853Z,108.70
2019-03-04T05:54:16.429Z,117.37
2019-03-04T05:56:44.100Z,122.30
2019-03-04T05:59:19.379Z,123.53
2019-03-04T06:01:50.418Z,124.37
2019-03-04T06:04:18.727Z,120.37
2019-03-04T06:06:59.630Z,115.30
2019-03-04T06:09:27.135Z,123.27
2019-03-04T06:11:54.669Z,115.90
2019-03-04T06:14:22.880Z,125.03
2019-03-04T06:16:50.351Z,112.27
2019-03-04T06:19:18.006Z,130.03
2019-03-04T06:21:45.704Z,122.57
2019-03-04T06:24:13.128Z,122.10
2019-03-04T06:26:40.814Z,115.23
2019-03-04T06:29:08.167Z,127.70
2019-03-04T06:31:35.538Z,126.93
2019-03-04T06:34:03.323Z,119.63
2019-03-04T06:36:30.985Z,128.93
2019-03-04T06:38:58.439Z,134.33
2019-03-04T06:41:25.918Z,125.23
2019-03-04T06:43:53.821Z,125.47
2019-03-04T06:46:21.571Z,114.17
2019-03-04T06:52:23.534Z,120.63
2019-03-04T06:55:41.842Z,132.33
2019-03-04T06:58:09.390Z,114.77
2019-03-04T07:01:11.859Z,124.87
2019-03-04T07:03:55.609Z,121.93
2019-03-04T07:06:23.060Z,133.37
2019-03-04T07:09:17.749Z,117.00
2019-03-04T07:11:54.628Z,128.53
2019-03-04T07:14:22.633Z,134.47
2019-03-04T07:16:51.698Z,122.93
2019-03-04T07:19:24.416Z,127.30
2019-03-04T07:21:52.114Z,119.90
2019-03-04T07:24:20.627Z,129.73
2019-03-04T07:26:48.737Z,119.93
2019-03-04T07:29:16.521Z,143.37
2019-03-04T07:31:44.096Z,122.20
2019-03-04T07:34:11.710Z,124.43
2019-03-04T07:36:39.411Z,124.17
2019-03-04T07:39:15.558Z,130.10
2019-03-04T07:41:45.519Z,115.60
2019-03-04T07:44:13.167Z,131.83
2019-03-04T07:46:40.806Z,116.03
2019-03-04T07:49:08.470Z,130.63
2019-03-04T07:51:36.022Z,127.53
2019-03-04T07:54:04.429Z,122.10
2019-03-04T07:56:32.906Z,118.80
2019-03-04T07:59:00.471Z,126.93
2019-03-04T08:01:28.143Z,122.83
2019-03-04T08:03:55.763Z,122.20
2019-03-04T08:06:23.372Z,123.50
2019-03-04T08:09:36.865Z,135.00
2019-03-04T08:13:16.438Z,126.43
2019-03-04T08:15:47.931Z,125.33
2019-03-04T08:18:15.532Z,122.70
2019-03-04T08:20:44.114Z,120.60
2019-03-04T08:23:11.563Z,127.20
2019-03-04T08:25:39.664Z,125.10
2019-03-04T08:28:09.809Z,116.67
2019-03-04T08:30:38.569Z,125.60
2019-03-04T08:33:06.460Z,127.50
2019-03-04T08:35:33.961Z,130.97
2019-03-04T08:38:01.558Z,130.10
2019-03-04T08:40:30.217Z,131.50
2019-03-04T08:42:57.734Z,127.60
2019-03-04T08:45:25.370Z,133.67
2019-03-04T08:47:54.961Z,131.17
2019-03-04T08:50:22.672Z,132.47
2019-03-04T08:52:50.351Z,133.43
2019-03-04T08:55:18.851Z,139.03
2019-03-04T08:57:46.471Z,142.87
2019-03-04T09:00:21.153Z,152.40
2019-03-04T09:02:50.731Z,147.07
2019-03-04T09:05:18.653Z,141.43
2019-03-04T09:07:46.438Z,154.67
2019-03-04T09:10:20.470Z,143.67
2019-03-04T09:12:48.359Z,145.20
2019-03-04T09:15:17.275Z,140.10
2019-03-04T09:17:44.821Z,164.63
2019-03-04T09:20:12.703Z,133.97
2019-03-04T09:22:40.249Z,144.53
2019-03-04T09:25:30.084Z,147.00
2019-03-04T09:27:54.029Z,140.73
2019-03-04T09:30:21.836Z,142.13
2019-03-04T09:32:49.404Z,139.37
2019-03-04T09:35:17.067Z,142.83
2019-03-04T09:37:46.086Z,148.63
2019-03-04T09:40:14.917Z,143.80
2019-03-04T09:42:42.800Z,144.47
2019-03-04T09:45:10.649Z,138.17
2019-03-04T09:47:38.613Z,144.30
2019-03-04T09:50:09.978Z,146.27
2019-03-04T09:52:37.859Z,139.47
2019-03-04T09:55:06.547Z,153.47
2019-03-04T09:57:33.931Z,150.97
2019-03-04T10:00:01.731Z,148.40
2019-03-04T10:02:42.736Z,143.27
2019-03-04T10:06:08.394Z,156.93
2019-03-04T10:09:30.525Z,156.67
2019-03-04T10:12:17.947Z,146.73
2019-03-04T10:15:37.218Z,160.57
2019-03-04T10:19:20.031Z,147.83
2019-03-04T10:22:29.092Z,147.40
2019-03-04T10:25:26.462Z,149.90
2019-03-04T10:29:09.665Z,161.53
2019-03-04T10:32:20.613Z,164.77
2019-03-04T10:35:13.100Z,154.30
2019-03-04T10:38:25.132Z,145.77
2019-03-04T10:41:31.690Z,146.30
2019-03-04T10:44:56.976Z,166.17
2019-03-04T10:47:24.432Z,154.27
2019-03-04T10:49:51.936Z,157.67
2019-03-04T10:52:19.557Z,153.07
2019-03-04T10:54:47.296Z,158.87
2019-03-04T10:57:14.840Z,145.70
2019-03-04T10:59:42.360Z,154.00
2019-03-04T11:02:10.235Z,147.30
2019-03-04T11:04:37.979Z,162.70
2019-03-04T11:07:05.584Z,141.50
2019-03-04T11:09:35.560Z,162.70
2019-03-04T11:12:03.726Z,150.77
2019-03-04T11:14:31.245Z,152.33
2019-03-04T11:16:59.671Z,145.67
2019-03-04T11:19:27.172Z,139.93
2019-03-04T11:21:54.702Z,127.27
2019-03-04T11:24:22.255Z,139.70
2019-03-04T11:26:50.138Z,132.60
2019-03-04T11:29:17.926Z,141.87
2019-03-04T11:31:45.469Z,130.53
2019-03-04T11:34:13.579Z,134.37
2019-03-04T11:36:40.913Z,133.67
2019-03-04T11:40:03.280Z,142.50
2019-03-04T11:42:31.694Z,126.27
2019-03-04T11:44:59.364Z,137.20
2019-03-04T11:47:26.946Z,132.93
2019-03-04T11:49:55.170Z,137.90
2019-03-04T11:52:22.792Z,134.80
2019-03-04T11:54:50.273Z,149.63
2019-03-04T11:57:18.622Z,136.07
2019-03-04T11:59:47.170Z,141.00
2019-03-04T12:02:20.423Z,131.90
2019-03-04T12:04:47.967Z,143.07
2019-03-04T12:07:15.407Z,131.43
2019-03-04T12:09:42.979Z,149.40
2019-03-04T12:12:10.502Z,144.00
2019-03-04T12:14:37.885Z,140.50
2019-03-04T12:17:05.320Z,127.33
2019-03-04T12:19:33.158Z,142.67
2019-03-04T12:22:01.000Z,135.47
2019-03-04T12:24:28.387Z,141.33
2019-03-04T12:26:55.768Z,131.07
2019-03-04T12:29:23.270Z,144.77
2019-03-04T12:32:01.817Z,139.90
2019-03-04T12:34:29.309Z,145.53
2019-03-04T12:36:56.699Z,136.60
2019-03-04T12:39:25.275Z,152.47
2019-03-04T12:41:53.835Z,133.47
2019-03-04T12:52:39.051Z,133.47
2019-03-04T12:55:09.206Z,138.83
2019-03-04T12:57:36.711Z,137.27
2019-03-04T13:00:08.899Z,134.20
2019-03-04T13:02:37.136Z,131.07
2019-03-04T13:09:13.843Z,143.93
2019-03-04T13:11:35.591Z,137.07
2019-03-04T13:14:03.412Z,140.00
2019-03-04T13:16:30.929Z,129.70
2019-03-04T13:19:00.417Z,133.90
2019-03-04T13:21:27.992Z,133.53
2019-03-04T13:23:55.882Z,134.13
2019-03-04T13:26:23.373Z,133.93
2019-03-04T13:28:50.777Z,135.63
2019-03-04T13:31:18.218Z,145.23
2019-03-04T13:33:45.581Z,134.80
2019-03-04T13:36:13.237Z,126.20
2019-03-04T13:38:42.029Z,131.13
2019-03-04T13:41:09.497Z,135.33
2019-03-04T13:43:37.105Z,137.17
2019-03-04T13:46:04.488Z,134.10
2019-03-04T13:48:31.885Z,145.57
2019-03-04T13:50:59.609Z,127.67
2019-03-04T13:53:27.084Z,131.90
2019-03-04T13:55:54.631Z,132.90
2019-03-04T13:58:22.245Z,128.70
2019-03-04T14:00:49.713Z,127.50
2019-03-04T14:03:17.196Z,122.23
2019-03-04T14:05:46.160Z,132.23
2019-03-04T14:08:13.631Z,136.77
2019-03-04T14:10:41.549Z,136.03
2019-03-04T14:13:09.277Z,126.03
2019-03-04T14:15:38.188Z,131.80
2019-03-04T14:18:05.787Z,129.10
2019-03-04T14:20:33.624Z,135.60
2019-03-04T14:23:01.741Z,134.77
2019-03-04T14:25:30.597Z,132.20
2019-03-04T14:27:59.673Z,130.70
2019-03-04T14:30:31.787Z,126.67
2019-03-04T14:32:59.426Z,127.47
2019-03-04T14:35:27.479Z,127.13
2019-03-04T14:37:55.095Z,135.60
2019-03-04T14:40:24.088Z,129.40
2019-03-04T14:42:51.963Z,123.60
2019-03-04T14:45:19.777Z,139.73
2019-03-04T14:47:47.342Z,122.43
2019-03-04T14:50:15.399Z,120.17
2019-03-04T14:52:44.798Z,128.23
2019-03-04T14:55:15.546Z,120.83
2019-03-04T14:57:43.448Z,128.23
2019-03-04T15:00:21.882Z,118.23
2019-03-04T15:02:50.269Z,124.40
2019-03-04T15:05:19.466Z,120.00
2019-03-04T15:07:47.312Z,118.43
2019-03-04T15:10:14.937Z,126.27
2019-03-04T15:12:42.570Z,125.30
2019-03-04T15:15:10.603Z,120.83
2019-03-04T15:17:38.107Z,135.23
2019-03-04T15:20:09.609Z,124.23
2019-03-04T15:22:37.545Z,133.97
2019-03-04T15:25:08.226Z,126.37
2019-03-04T15:27:35.827Z,134.93
2019-03-04T15:30:05.688Z,124.70
2019-03-04T15:32:35.015Z,123.57
2019-03-04T15:35:03.315Z,123.77
2019-03-04T15:37:33.600Z,122.27
2019-03-04T15:40:01.849Z,128.93
2019-03-04T15:42:30.733Z,124.33
2019-03-04T15:44:58.366Z,127.97
2019-03-04T15:47:26.277Z,130.77
2019-03-04T15:49:54.085Z,141.77
2019-03-04T15:52:21.988Z,120.63
2019-03-04T15:54:49.624Z,130.07
2019-03-04T15:57:17.250Z,119.20
2019-03-04T15:59:44.863Z,131.87
2019-03-04T16:02:14.406Z,122.53
2019-03-04T16:04:41.948Z,139.63
2019-03-04T16:07:11.179Z,120.13
2019-03-04T16:09:39.532Z,139.47
2019-03-04T16:15:12.640Z,140.53
2019-03-04T16:17:45.120Z,129.37
2019-03-04T16:20:16.344Z,127.60
2019-03-04T16:22:44.311Z,119.50
2019-03-04T16:25:11.951Z,120.13
2019-03-04T16:27:39.570Z,125.27
2019-03-04T16:30:11.374Z,125.73
2019-03-04T16:32:39.113Z,121.37
2019-03-04T16:35:07.606Z,118.60
2019-03-04T16:37:35.149Z,124.43
2019-03-04T16:40:03.227Z,121.87
2019-03-04T16:42:30.573Z,118.63
2019-03-04T16:44:58.042Z,122.17
2019-03-04T16:47:25.660Z,122.33
2019-03-04T16:49:53.142Z,121.80
2019-03-04T16:52:25.041Z,141.83
2019-03-04T16:54:52.552Z,127.37
2019-03-04T16:57:20.172Z,128.07
2019-03-04T16:59:48.064Z,126.03
2019-03-04T17:02:15.931Z,117.53
2019-03-04T17:04:43.569Z,127.90
2019-03-04T17:07:12.925Z,125.20
2019-03-04T17:09:41.129Z,128.03
2019-03-04T17:12:08.731Z,122.00
2019-03-04T17:14:36.178Z,136.77
2019-03-04T17:17:49.819Z,134.00
2019-03-04T17:20:17.885Z,130.63
2019-03-04T17:22:45.736Z,128.67
2019-03-04T17:25:14.790Z,122.70
2019-03-04T17:27:43.022Z,127.73
2019-03-04T17:30:12.939Z,122.03
2019-03-04T17:32:40.983Z,124.10
2019-03-04T17:35:10.816Z,122.23
2019-03-04T17:37:38.655Z,125.17
2019-03-04T17:40:09.725Z,140.00
2019-03-04T17:42:39.480Z,130.83
2019-03-04T17:45:10.121Z,126.33
2019-03-04T17:47:37.968Z,127.43
2019-03-04T17:50:08.722Z,129.67
2019-03-04T17:52:36.452Z,120.50
2019-03-04T17:55:05.830Z,124.50
2019-03-04T17:57:33.441Z,124.23
2019-03-04T18:00:00.989Z,132.57
2019-03-04T18:02:30.764Z,124.77
2019-03-04T18:04:58.812Z,126.60
2019-03-04T18:07:26.923Z,122.40
2019-03-04T18:09:54.303Z,121.63
2019-03-04T18:12:22.596Z,124.30
2019-03-04T18:14:50.385Z,128.47
2019-03-04T18:17:17.764Z,121.27
2019-03-04T18:19:45.331Z,132.93
2019-03-04T18:22:12.757Z,133.53
2019-03-04T18:24:40.437Z,133.90
2019-03-04T18:27:39.930Z,131.37
2019-03-04T18:31:13.701Z,125.10
2019-03-04T18:34:46.192Z,126.50
2019-03-04T18:38:25.638Z,120.10
2019-03-04T18:42:00.583Z,121.13
2019-03-04T18:45:52.359Z,139.13
2019-03-04T18:48:59.811Z,131.93
2019-03-04T18:51:30.903Z,119.83
2019-03-04T18:54:07.486Z,138.73
2019-03-04T18:56:37.227Z,131.57
2019-03-04T18:59:06.594Z,155.57
2019-03-04T19:01:34.283Z,125.03
2019-03-04T19:04:02.948Z,141.33
2019-03-04T19:06:31.994Z,131.73
2019-03-04T19:08:59.482Z,142.17
2019-03-04T19:11:27.020Z,127.37
2019-03-04T19:13:54.562Z,134.80
2019-03-04T19:16:23.802Z,129.43
2019-03-04T19:18:53.475Z,120.07
2019-03-04T19:21:21.470Z,125.17
2019-03-04T19:23:48.930Z,123.53
2019-03-04T19:26:17.201Z,131.17
2019-03-04T19:28:46.022Z,122.57
2019-03-04T19:31:14.520Z,129.00
2019-03-04T19:33:42.888Z,123.37
2019-03-04T19:36:20.178Z,135.57
2019-03-04T19:38:49.029Z,126.50
2019-03-04T19:41:16.863Z,128.97
2019-03-04T19:43:45.047Z,135.03
2019-03-04T19:46:23.226Z,150.27
2019-03-04T19:48:57.020Z,127.03
2019-03-04T19:51:25.392Z,123.87
2019-03-04T19:53:54.764Z,128.37
2019-03-04T19:56:26.213Z,127.53
2019-03-04T19:58:56.533Z,127.53
2019-03-04T20:01:24.205Z,120.00
2019-03-04T20:03:52.335Z,117.70
2019-03-04T20:06:20.365Z,118.13
2019-03-04T20:08:54.251Z,117.37
2019-03-04T20:11:24.005Z,112.80
2019-03-04T20:13:53.392Z,121.70
2019-03-04T20:16:21.484Z,121.07
2019-03-04T20:18:59.084Z,118.70
2019-03-04T20:21:28.430Z,117.80
2019-03-04T20:23:56.132Z,139.27
2019-03-04T20:26:24.904Z,136.40
2019-03-04T20:28:52.514Z,118.53
2019-03-04T20:32:16.786Z,115.90
2019-03-04T20:34:47.108Z,128.13
2019-03-04T20:37:14.637Z,114.63
2019-03-04T20:39:42.576Z,135.07
2019-03-04T20:42:10.813Z,111.00
2019-03-04T20:44:38.504Z,130.20
2019-03-04T20:47:06.090Z,123.70
2019-03-04T20:49:33.517Z,124.03
2019-03-04T20:52:02.250Z,117.57
2019-03-04T20:54:33.372Z,121.90
2019-03-04T20:57:04.056Z,133.40
2019-03-04T20:59:32.302Z,135.27
2019-03-04T21:02:03.684Z,118.80
2019-03-04T21:04:35.434Z,134.17
2019-03-04T21:07:09.853Z,130.77
2019-03-04T21:09:38.026Z,134.17
2019-03-04T21:12:06.885Z,135.37
2019-03-04T21:14:36.860Z,141.20
2019-03-04T21:17:06.207Z,122.50
2019-03-04T21:19:33.756Z,136.03
2019-03-04T21:22:02.455Z,140.57
2019-03-04T21:24:30.043Z,134.97
2019-03-04T21:26:58.210Z,118.80
2019-03-04T21:30:10.147Z,126.60
2019-03-04T21:33:16.262Z,137.57
2019-03-04T21:36:23.965Z,124.80
2019-03-04T21:38:55.811Z,124.60
2019-03-04T21:41:43.345Z,114.97
2019-03-04T21:44:45.874Z,141.07
2019-03-04T21:47:32.267Z,129.17
2019-03-04T21:49:59.790Z,129.23
2019-03-04T21:53:09.571Z,123.80
2019-03-04T21:56:29.314Z,116.87
2019-03-04T21:58:57.440Z,145.50
2019-03-04T22:01:35.468Z,128.83
2019-03-04T22:04:04.256Z,133.20
2019-03-04T22:06:34.055Z,127.33
2019-03-04T22:09:02.588Z,127.33
2019-03-04T22:11:32.147Z,131.17
2019-03-04T22:13:59.986Z,127.60
2019-03-04T22:16:27.620Z,124.17
2019-03-04T22:18:55.007Z,124.60
2019-03-04T22:21:22.895Z,131.73
2019-03-04T22:23:50.444Z,134.30
2019-03-04T22:26:18.363Z,127.60
2019-03-04T22:28:46.792Z,129.00
2019-03-04T22:31:14.436Z,139.50
2019-03-04T22:33:41.929Z,127.27
2019-03-04T22:36:09.667Z,131.73
2019-03-04T22:38:37.223Z,120.87
2019-03-04T22:41:05.038Z,129.60
2019-03-04T22:43:33.179Z,126.47
2019-03-04T22:46:00.584Z,125.03
2019-03-04T22:48:31.259Z,120.13
2019-03-04T22:50:59.281Z,128.57
2019-03-04T22:53:26.721Z,120.50
2019-03-04T22:55:54.912Z,122.03
2019-03-04T22:58:28.625Z,127.53
2019-03-04T23:05:17.579Z,128.83
2019-03-04T23:07:49.694Z,121.70
2019-03-04T23:10:46.807Z,119.00
2019-03-04T23:13:56.105Z,132.37
2019-03-04T23:16:27.655Z,107.87
2019-03-04T23:18:55.726Z,116.33
2019-03-04T23:21:23.630Z,113.67
2019-03-04T23:23:51.610Z,123.13
2019-03-04T23:26:19.633Z,113.13
2019-03-04T23:28:48.116Z,118.77
2019-03-04T23:31:16.360Z,110.03
2019-03-04T23:33:44.522Z,111.03
2019-03-04T23:36:12.470Z,118.63
2019-03-04T23:38:40.394Z,114.67
2019-03-04T23:41:09.254Z,115.07
2019-03-04T23:43:37.351Z,116.27
2019-03-04T23:46:05.400Z,117.77
2019-03-04T23:48:33.401Z,116.13
2019-03-04T23:51:01.385Z,110.00
2019-03-04T23:53:31.112Z,114.43
2019-03-04T23:55:59.291Z,117.80
2019-03-04T23:58:27.984Z,117.83
